sensor_id;sensor_type;location;lat;lon;timestamp;P1;durP1;ratioP1;P2;durP2;ratioP2
28170;SDS011;15458;53.346;-1.688;2022-08-21T00:01:45;12.27;;;2.63;;
28170;SDS011;15458;53.346;-1.688;2022-08-21T00:04:11;15.15;;;2.58;;
28170;SDS011;15458;53.346;-1.688;2022-08-21T00:06:38;14.45;;;2.08;;
28170;SDS011;15458;53.346;-1.688;2022-08-21T00:09:05;13.60;;;2.38;;
28170;SDS011;15458;53.346;-1.688;2022-08-21T00:11:32;10.45;;;2.20;;
28170;SDS011;15458;53.346;-1.688;2022-08-21T00:14:02;10.83;;;2.47;;
28170;SDS011;15458;53.346;-1.688;2022-08-21T00:16:30;13.57;;;2.25;;
28170;SDS011;15458;53.346;-1.688;2022-08-21T00:18:56;12.15;;;2.05;;
28170;SDS011;15458;53.346;-1.688;2022-08-21T00:21:22;8.85;;;2.00;;
28170;SDS011;15458;53.346;-1.688;2022-08-21T00:23:48;8.63;;;1.92;;
28170;SDS011;15458;53.346;-1.688;2022-08-21T00:26:14;19.33;;;2.60;;
28170;SDS011;15458;53.346;-1.688;2022-08-21T00:28:39;14.80;;;2.30;;
28170;SDS011;15458;53.346;-1.688;2022-08-21T00:31:05;10.65;;;2.10;;
28170;SDS011;15458;53.346;-1.688;2022-08-21T00:33:31;9.90;;;2.25;;
28170;SDS011;15458;53.346;-1.688;2022-08-21T00:35:57;12.88;;;2.15;;
28170;SDS011;15458;53.346;-1.688;2022-08-21T00:38:23;13.07;;;3.03;;
28170;SDS011;15458;53.346;-1.688;2022-08-21T00:40:50;12.40;;;2.40;;
28170;SDS011;15458;53.346;-1.688;2022-08-21T00:43:23;12.77;;;2.40;;
28170;SDS011;15458;53.346;-1.688;2022-08-21T00:45:54;11.25;;;2.42;;
28170;SDS011;15458;53.346;-1.688;2022-08-21T00:48:20;11.90;;;2.20;;
28170;SDS011;15458;53.346;-1.688;2022-08-21T00:50:52;10.60;;;2.45;;
28170;SDS011;15458;53.346;-1.688;2022-08-21T00:53:35;12.45;;;2.55;;
28170;SDS011;15458;53.346;-1.688;2022-08-21T00:56:04;14.27;;;2.70;;
28170;SDS011;15458;53.346;-1.688;2022-08-21T00:58:32;11.02;;;2.00;;
28170;SDS011;15458;53.346;-1.688;2022-08-21T01:01:01;16.05;;;3.13;;
28170;SDS011;15458;53.346;-1.688;2022-08-21T01:03:29;13.70;;;2.22;;
28170;SDS011;15458;53.346;-1.688;2022-08-21T01:05:55;13.40;;;2.58;;
28170;SDS011;15458;53.346;-1.688;2022-08-21T01:08:21;14.13;;;2.67;;
28170;SDS011;15458;53.346;-1.688;2022-08-21T01:10:47;15.77;;;2.50;;
28170;SDS011;15458;53.346;-1.688;2022-08-21T01:13:15;11.25;;;2.50;;
28170;SDS011;15458;53.346;-1.688;2022-08-21T01:15:43;13.77;;;2.88;;
28170;SDS011;15458;53.346;-1.688;2022-08-21T01:18:12;14.93;;;2.30;;
28170;SDS011;15458;53.346;-1.688;2022-08-21T01:20:41;15.35;;;2.50;;
28170;SDS011;15458;53.346;-1.688;2022-08-21T01:23:11;10.88;;;2.85;;
28170;SDS011;15458;53.346;-1.688;2022-08-21T01:25:37;12.80;;;2.25;;
28170;SDS011;15458;53.346;-1.688;2022-08-21T01:28:09;9.93;;;2.40;;
28170;SDS011;15458;53.346;-1.688;2022-08-21T01:30:38;16.83;;;2.80;;
28170;SDS011;15458;53.346;-1.688;2022-08-21T01:33:05;10.10;;;2.63;;
28170;SDS011;15458;53.346;-1.688;2022-08-21T01:35:31;11.07;;;2.97;;
28170;SDS011;15458;53.346;-1.688;2022-08-21T01:37:57;13.07;;;2.47;;
28170;SDS011;15458;53.346;-1.688;2022-08-21T01:40:23;9.10;;;3.10;;
28170;SDS011;15458;53.346;-1.688;2022-08-21T01:42:50;16.35;;;2.38;;
28170;SDS011;15458;53.346;-1.688;2022-08-21T01:45:16;13.40;;;2.25;;
28170;SDS011;15458;53.346;-1.688;2022-08-21T01:47:42;13.20;;;2.42;;
28170;SDS011;15458;53.346;-1.688;2022-08-21T01:50:14;18.10;;;2.40;;
28170;SDS011;15458;53.346;-1.688;2022-08-21T01:52:41;13.00;;;2.15;;
28170;SDS011;15458;53.346;-1.688;2022-08-21T01:55:08;9.70;;;2.05;;
28170;SDS011;15458;53.346;-1.688;2022-08-21T01:57:35;11.05;;;2.65;;
28170;SDS011;15458;53.346;-1.688;2022-08-21T02:00:01;11.32;;;2.47;;
28170;SDS011;15458;53.346;-1.688;2022-08-21T02:02:33;13.40;;;2.83;;
28170;SDS011;15458;53.346;-1.688;2022-08-21T02:04:59;14.13;;;2.45;;
28170;SDS011;15458;53.346;-1.688;2022-08-21T02:07:25;10.20;;;3.08;;
28170;SDS011;15458;53.346;-1.688;2022-08-21T02:09:51;12.57;;;2.70;;
28170;SDS011;15458;53.346;-1.688;2022-08-21T02:12:16;18.63;;;2.60;;
28170;SDS011;15458;53.346;-1.688;2022-08-21T02:14:42;11.57;;;2.50;;
28170;SDS011;15458;53.346;-1.688;2022-08-21T02:17:08;14.73;;;2.67;;
28170;SDS011;15458;53.346;-1.688;2022-08-21T02:19:34;11.05;;;2.70;;
28170;SDS011;15458;53.346;-1.688;2022-08-21T02:21:59;13.82;;;2.30;;
28170;SDS011;15458;53.346;-1.688;2022-08-21T02:24:25;14.48;;;2.45;;
28170;SDS011;15458;53.346;-1.688;2022-08-21T02:26:51;10.73;;;2.70;;
28170;SDS011;15458;53.346;-1.688;2022-08-21T02:29:16;17.35;;;2.75;;
28170;SDS011;15458;53.346;-1.688;2022-08-21T02:31:42;10.02;;;2.55;;
28170;SDS011;15458;53.346;-1.688;2022-08-21T02:34:08;15.82;;;2.88;;
28170;SDS011;15458;53.346;-1.688;2022-08-21T02:36:34;14.50;;;2.67;;
28170;SDS011;15458;53.346;-1.688;2022-08-21T02:38:59;11.48;;;2.72;;
28170;SDS011;15458;53.346;-1.688;2022-08-21T02:41:25;7.15;;;2.25;;
28170;SDS011;15458;53.346;-1.688;2022-08-21T02:43:51;15.23;;;2.70;;
28170;SDS011;15458;53.346;-1.688;2022-08-21T02:46:17;12.20;;;3.08;;
28170;SDS011;15458;53.346;-1.688;2022-08-21T02:48:45;16.77;;;3.08;;
28170;SDS011;15458;53.346;-1.688;2022-08-21T02:51:13;9.07;;;2.20;;
28170;SDS011;15458;53.346;-1.688;2022-08-21T02:56:10;9.60;;;2.83;;
28170;SDS011;15458;53.346;-1.688;2022-08-21T02:58:44;12.23;;;2.53;;
28170;SDS011;15458;53.346;-1.688;2022-08-21T03:01:12;10.02;;;2.30;;
28170;SDS011;15458;53.346;-1.688;2022-08-21T03:03:39;11.90;;;3.00;;
28170;SDS011;15458;53.346;-1.688;2022-08-21T03:06:07;15.68;;;3.35;;
28170;SDS011;15458;53.346;-1.688;2022-08-21T03:08:34;19.45;;;2.22;;
28170;SDS011;15458;53.346;-1.688;2022-08-21T03:11:01;10.88;;;2.58;;
28170;SDS011;15458;53.346;-1.688;2022-08-21T03:13:27;14.40;;;4.03;;
28170;SDS011;15458;53.346;-1.688;2022-08-21T03:15:53;13.63;;;3.05;;
28170;SDS011;15458;53.346;-1.688;2022-08-21T03:18:19;18.73;;;3.00;;
28170;SDS011;15458;53.346;-1.688;2022-08-21T03:20:45;12.07;;;2.70;;
28170;SDS011;15458;53.346;-1.688;2022-08-21T03:23:12;14.68;;;2.60;;
28170;SDS011;15458;53.346;-1.688;2022-08-21T03:25:39;12.48;;;2.30;;
28170;SDS011;15458;53.346;-1.688;2022-08-21T03:28:06;14.75;;;2.95;;
28170;SDS011;15458;53.346;-1.688;2022-08-21T03:30:34;13.98;;;3.28;;
28170;SDS011;15458;53.346;-1.688;2022-08-21T03:33:00;17.45;;;2.92;;
28170;SDS011;15458;53.346;-1.688;2022-08-21T03:35:27;14.05;;;2.45;;
28170;SDS011;15458;53.346;-1.688;2022-08-21T03:37:53;16.92;;;4.18;;
28170;SDS011;15458;53.346;-1.688;2022-08-21T03:40:19;14.23;;;2.65;;
28170;SDS011;15458;53.346;-1.688;2022-08-21T03:42:46;10.52;;;2.65;;
28170;SDS011;15458;53.346;-1.688;2022-08-21T03:45:15;10.05;;;3.00;;
28170;SDS011;15458;53.346;-1.688;2022-08-21T03:47:55;14.80;;;2.47;;
28170;SDS011;15458;53.346;-1.688;2022-08-21T03:50:21;18.05;;;4.15;;
28170;SDS011;15458;53.346;-1.688;2022-08-21T03:52:48;17.48;;;3.08;;
28170;SDS011;15458;53.346;-1.688;2022-08-21T03:55:14;16.30;;;2.50;;
28170;SDS011;15458;53.346;-1.688;2022-08-21T03:57:40;11.43;;;2.60;;
28170;SDS011;15458;53.346;-1.688;2022-08-21T04:00:07;12.80;;;2.72;;
28170;SDS011;15458;53.346;-1.688;2022-08-21T04:02:36;14.30;;;3.23;;
28170;SDS011;15458;53.346;-1.688;2022-08-21T04:05:02;19.70;;;2.90;;
28170;SDS011;15458;53.346;-1.688;2022-08-21T04:07:28;12.48;;;2.90;;
28170;SDS011;15458;53.346;-1.688;2022-08-21T04:09:53;14.25;;;3.10;;
28170;SDS011;15458;53.346;-1.688;2022-08-21T04:12:19;17.40;;;2.80;;
28170;SDS011;15458;53.346;-1.688;2022-08-21T04:14:45;21.58;;;3.45;;
28170;SDS011;15458;53.346;-1.688;2022-08-21T04:17:11;15.10;;;2.63;;
28170;SDS011;15458;53.346;-1.688;2022-08-21T04:19:37;16.02;;;3.17;;
28170;SDS011;15458;53.346;-1.688;2022-08-21T04:22:03;11.57;;;2.85;;
28170;SDS011;15458;53.346;-1.688;2022-08-21T04:24:29;19.13;;;3.08;;
28170;SDS011;15458;53.346;-1.688;2022-08-21T04:26:55;12.55;;;3.10;;
28170;SDS011;15458;53.346;-1.688;2022-08-21T04:29:20;12.10;;;3.35;;
28170;SDS011;15458;53.346;-1.688;2022-08-21T04:31:46;12.77;;;3.08;;
28170;SDS011;15458;53.346;-1.688;2022-08-21T04:34:13;7.63;;;2.47;;
28170;SDS011;15458;53.346;-1.688;2022-08-21T04:36:39;11.10;;;2.70;;
28170;SDS011;15458;53.346;-1.688;2022-08-21T04:39:07;11.98;;;3.20;;
28170;SDS011;15458;53.346;-1.688;2022-08-21T04:41:33;12.38;;;3.05;;
28170;SDS011;15458;53.346;-1.688;2022-08-21T04:44:01;13.45;;;3.80;;
28170;SDS011;15458;53.346;-1.688;2022-08-21T04:46:28;8.73;;;2.80;;
28170;SDS011;15458;53.346;-1.688;2022-08-21T04:48:54;9.52;;;2.92;;
28170;SDS011;15458;53.346;-1.688;2022-08-21T04:51:24;13.43;;;2.90;;
28170;SDS011;15458;53.346;-1.688;2022-08-21T04:56:32;16.13;;;2.80;;
28170;SDS011;15458;53.346;-1.688;2022-08-21T04:59:03;11.30;;;3.03;;
28170;SDS011;15458;53.346;-1.688;2022-08-21T05:01:32;10.68;;;2.70;;
28170;SDS011;15458;53.346;-1.688;2022-08-21T05:04:00;10.77;;;2.90;;
28170;SDS011;15458;53.346;-1.688;2022-08-21T05:06:30;10.57;;;3.45;;
28170;SDS011;15458;53.346;-1.688;2022-08-21T05:08:59;16.55;;;3.33;;
28170;SDS011;15458;53.346;-1.688;2022-08-21T05:11:26;13.77;;;3.08;;
28170;SDS011;15458;53.346;-1.688;2022-08-21T05:13:53;11.40;;;3.05;;
28170;SDS011;15458;53.346;-1.688;2022-08-21T05:16:18;12.77;;;3.05;;
28170;SDS011;15458;53.346;-1.688;2022-08-21T05:18:44;14.55;;;3.72;;
28170;SDS011;15458;53.346;-1.688;2022-08-21T05:21:10;20.73;;;3.30;;
28170;SDS011;15458;53.346;-1.688;2022-08-21T05:23:36;16.83;;;3.95;;
28170;SDS011;15458;53.346;-1.688;2022-08-21T05:26:02;12.95;;;3.20;;
28170;SDS011;15458;53.346;-1.688;2022-08-21T05:28:29;13.38;;;3.40;;
28170;SDS011;15458;53.346;-1.688;2022-08-21T05:30:56;20.75;;;4.18;;
28170;SDS011;15458;53.346;-1.688;2022-08-21T05:33:22;9.88;;;3.50;;
28170;SDS011;15458;53.346;-1.688;2022-08-21T05:35:51;9.80;;;3.60;;
28170;SDS011;15458;53.346;-1.688;2022-08-21T05:38:21;12.23;;;3.47;;
28170;SDS011;15458;53.346;-1.688;2022-08-21T05:40:47;9.93;;;3.72;;
28170;SDS011;15458;53.346;-1.688;2022-08-21T05:43:13;13.30;;;3.22;;
28170;SDS011;15458;53.346;-1.688;2022-08-21T05:45:39;11.95;;;3.28;;
28170;SDS011;15458;53.346;-1.688;2022-08-21T05:48:06;17.00;;;4.07;;
28170;SDS011;15458;53.346;-1.688;2022-08-21T05:50:34;12.82;;;3.70;;
28170;SDS011;15458;53.346;-1.688;2022-08-21T05:53:00;11.63;;;3.47;;
28170;SDS011;15458;53.346;-1.688;2022-08-21T05:55:26;12.63;;;3.38;;
28170;SDS011;15458;53.346;-1.688;2022-08-21T05:57:52;11.95;;;3.28;;
28170;SDS011;15458;53.346;-1.688;2022-08-21T06:00:17;9.27;;;3.30;;
28170;SDS011;15458;53.346;-1.688;2022-08-21T06:02:43;9.05;;;3.40;;
28170;SDS011;15458;53.346;-1.688;2022-08-21T06:05:09;11.90;;;3.90;;
28170;SDS011;15458;53.346;-1.688;2022-08-21T06:07:35;9.77;;;3.47;;
28170;SDS011;15458;53.346;-1.688;2022-08-21T06:10:02;10.35;;;3.10;;
28170;SDS011;15458;53.346;-1.688;2022-08-21T06:12:27;11.77;;;2.92;;
28170;SDS011;15458;53.346;-1.688;2022-08-21T06:14:53;14.25;;;3.33;;
28170;SDS011;15458;53.346;-1.688;2022-08-21T06:17:19;9.70;;;2.90;;
28170;SDS011;15458;53.346;-1.688;2022-08-21T06:19:50;15.55;;;4.03;;
28170;SDS011;15458;53.346;-1.688;2022-08-21T06:22:17;11.30;;;3.03;;
28170;SDS011;15458;53.346;-1.688;2022-08-21T06:24:43;14.85;;;3.42;;
28170;SDS011;15458;53.346;-1.688;2022-08-21T06:27:08;19.35;;;3.88;;
28170;SDS011;15458;53.346;-1.688;2022-08-21T06:29:35;14.43;;;4.40;;
28170;SDS011;15458;53.346;-1.688;2022-08-21T06:32:01;11.32;;;3.63;;
28170;SDS011;15458;53.346;-1.688;2022-08-21T06:34:28;16.10;;;3.75;;
28170;SDS011;15458;53.346;-1.688;2022-08-21T06:36:53;13.23;;;3.90;;
28170;SDS011;15458;53.346;-1.688;2022-08-21T06:39:19;16.25;;;3.78;;
28170;SDS011;15458;53.346;-1.688;2022-08-21T06:41:45;9.40;;;2.63;;
28170;SDS011;15458;53.346;-1.688;2022-08-21T06:44:11;10.95;;;3.45;;
28170;SDS011;15458;53.346;-1.688;2022-08-21T06:46:37;13.80;;;4.57;;
28170;SDS011;15458;53.346;-1.688;2022-08-21T06:49:03;8.63;;;3.22;;
28170;SDS011;15458;53.346;-1.688;2022-08-21T06:51:31;12.65;;;3.75;;
28170;SDS011;15458;53.346;-1.688;2022-08-21T06:53:57;16.88;;;3.92;;
28170;SDS011;15458;53.346;-1.688;2022-08-21T06:56:22;13.63;;;3.67;;
28170;SDS011;15458;53.346;-1.688;2022-08-21T06:58:49;13.52;;;3.20;;
28170;SDS011;15458;53.346;-1.688;2022-08-21T07:01:17;13.50;;;3.33;;
28170;SDS011;15458;53.346;-1.688;2022-08-21T07:03:45;16.48;;;4.32;;
28170;SDS011;15458;53.346;-1.688;2022-08-21T07:06:11;10.27;;;2.63;;
28170;SDS011;15458;53.346;-1.688;2022-08-21T07:08:37;9.27;;;2.92;;
28170;SDS011;15458;53.346;-1.688;2022-08-21T07:11:07;9.15;;;2.75;;
28170;SDS011;15458;53.346;-1.688;2022-08-21T07:13:39;17.10;;;3.15;;
28170;SDS011;15458;53.346;-1.688;2022-08-21T07:16:05;11.02;;;2.70;;
28170;SDS011;15458;53.346;-1.688;2022-08-21T07:18:31;10.82;;;3.08;;
28170;SDS011;15458;53.346;-1.688;2022-08-21T07:20:58;10.68;;;2.60;;
28170;SDS011;15458;53.346;-1.688;2022-08-21T07:23:28;9.52;;;2.55;;
28170;SDS011;15458;53.346;-1.688;2022-08-21T07:25:57;12.13;;;3.00;;
28170;SDS011;15458;53.346;-1.688;2022-08-21T07:28:26;13.48;;;2.50;;
28170;SDS011;15458;53.346;-1.688;2022-08-21T07:30:54;14.13;;;3.10;;
28170;SDS011;15458;53.346;-1.688;2022-08-21T07:33:22;10.60;;;2.40;;
28170;SDS011;15458;53.346;-1.688;2022-08-21T07:35:50;9.35;;;2.60;;
28170;SDS011;15458;53.346;-1.688;2022-08-21T07:38:18;14.57;;;3.17;;
28170;SDS011;15458;53.346;-1.688;2022-08-21T07:40:45;9.35;;;2.58;;
28170;SDS011;15458;53.346;-1.688;2022-08-21T07:43:13;13.73;;;2.80;;
28170;SDS011;15458;53.346;-1.688;2022-08-21T07:45:41;10.63;;;2.80;;
28170;SDS011;15458;53.346;-1.688;2022-08-21T07:48:07;14.02;;;3.63;;
28170;SDS011;15458;53.346;-1.688;2022-08-21T07:50:33;13.02;;;2.65;;
28170;SDS011;15458;53.346;-1.688;2022-08-21T07:52:58;9.68;;;2.70;;
28170;SDS011;15458;53.346;-1.688;2022-08-21T07:55:24;16.65;;;2.80;;
28170;SDS011;15458;53.346;-1.688;2022-08-21T07:57:50;9.10;;;1.90;;
28170;SDS011;15458;53.346;-1.688;2022-08-21T08:00:18;15.20;;;2.30;;
28170;SDS011;15458;53.346;-1.688;2022-08-21T08:02:46;10.27;;;2.28;;
28170;SDS011;15458;53.346;-1.688;2022-08-21T08:05:17;5.75;;;1.70;;
28170;SDS011;15458;53.346;-1.688;2022-08-21T08:07:44;10.48;;;1.90;;
28170;SDS011;15458;53.346;-1.688;2022-08-21T08:10:10;10.98;;;2.72;;
28170;SDS011;15458;53.346;-1.688;2022-08-21T08:12:38;6.97;;;2.05;;
28170;SDS011;15458;53.346;-1.688;2022-08-21T08:15:07;10.38;;;2.00;;
28170;SDS011;15458;53.346;-1.688;2022-08-21T08:17:39;7.72;;;1.27;;
28170;SDS011;15458;53.346;-1.688;2022-08-21T08:20:05;11.02;;;1.90;;
28170;SDS011;15458;53.346;-1.688;2022-08-21T08:22:33;11.02;;;1.73;;
28170;SDS011;15458;53.346;-1.688;2022-08-21T08:24:59;7.75;;;1.95;;
28170;SDS011;15458;53.346;-1.688;2022-08-21T08:27:26;7.65;;;1.75;;
28170;SDS011;15458;53.346;-1.688;2022-08-21T08:29:55;14.68;;;2.15;;
28170;SDS011;15458;53.346;-1.688;2022-08-21T08:32:20;13.60;;;2.28;;
28170;SDS011;15458;53.346;-1.688;2022-08-21T08:34:47;10.52;;;2.08;;
28170;SDS011;15458;53.346;-1.688;2022-08-21T08:37:14;9.95;;;2.05;;
28170;SDS011;15458;53.346;-1.688;2022-08-21T08:39:40;12.05;;;2.55;;
28170;SDS011;15458;53.346;-1.688;2022-08-21T08:44:50;12.27;;;2.20;;
28170;SDS011;15458;53.346;-1.688;2022-08-21T08:47:23;5.80;;;1.63;;
28170;SDS011;15458;53.346;-1.688;2022-08-21T08:52:36;8.23;;;1.90;;
28170;SDS011;15458;53.346;-1.688;2022-08-21T08:55:32;10.15;;;1.83;;
28170;SDS011;15458;53.346;-1.688;2022-08-21T08:58:09;12.20;;;1.75;;
28170;SDS011;15458;53.346;-1.688;2022-08-21T09:00:51;13.30;;;1.85;;
28170;SDS011;15458;53.346;-1.688;2022-08-21T09:03:22;11.40;;;1.90;;
28170;SDS011;15458;53.346;-1.688;2022-08-21T09:06:04;13.15;;;1.83;;
28170;SDS011;15458;53.346;-1.688;2022-08-21T09:08:54;6.68;;;1.75;;
28170;SDS011;15458;53.346;-1.688;2022-08-21T09:14:31;7.88;;;1.65;;
28170;SDS011;15458;53.346;-1.688;2022-08-21T09:22:50;12.88;;;2.00;;
28170;SDS011;15458;53.346;-1.688;2022-08-21T09:25:31;6.68;;;1.52;;
28170;SDS011;15458;53.346;-1.688;2022-08-21T09:28:07;11.05;;;2.78;;
28170;SDS011;15458;53.346;-1.688;2022-08-21T09:30:33;9.95;;;1.92;;
28170;SDS011;15458;53.346;-1.688;2022-08-21T09:32:59;7.57;;;1.63;;
28170;SDS011;15458;53.346;-1.688;2022-08-21T09:35:26;10.30;;;1.95;;
28170;SDS011;15458;53.346;-1.688;2022-08-21T09:37:53;6.88;;;1.75;;
28170;SDS011;15458;53.346;-1.688;2022-08-21T09:40:26;8.10;;;1.65;;
28170;SDS011;15458;53.346;-1.688;2022-08-21T09:45:40;7.68;;;1.90;;
28170;SDS011;15458;53.346;-1.688;2022-08-21T09:50:46;7.50;;;1.15;;
28170;SDS011;15458;53.346;-1.688;2022-08-21T09:53:18;13.30;;;1.98;;
28170;SDS011;15458;53.346;-1.688;2022-08-21T09:55:57;6.93;;;1.80;;
28170;SDS011;15458;53.346;-1.688;2022-08-21T09:58:42;5.78;;;1.38;;
28170;SDS011;15458;53.346;-1.688;2022-08-21T10:01:15;9.93;;;2.08;;
28170;SDS011;15458;53.346;-1.688;2022-08-21T10:04:01;8.75;;;2.00;;
28170;SDS011;15458;53.346;-1.688;2022-08-21T10:06:28;8.70;;;1.88;;
28170;SDS011;15458;53.346;-1.688;2022-08-21T10:09:05;14.07;;;2.38;;
28170;SDS011;15458;53.346;-1.688;2022-08-21T10:11:36;7.70;;;1.60;;
28170;SDS011;15458;53.346;-1.688;2022-08-21T10:14:13;6.65;;;1.80;;
28170;SDS011;15458;53.346;-1.688;2022-08-21T10:16:47;4.53;;;1.30;;
28170;SDS011;15458;53.346;-1.688;2022-08-21T10:28:00;8.13;;;2.05;;
28170;SDS011;15458;53.346;-1.688;2022-08-21T10:43:52;6.05;;;1.50;;
28170;SDS011;15458;53.346;-1.688;2022-08-21T10:57:02;8.93;;;1.60;;
28170;SDS011;15458;53.346;-1.688;2022-08-21T10:59:55;6.68;;;1.88;;
28170;SDS011;15458;53.346;-1.688;2022-08-21T11:02:35;8.30;;;1.65;;
28170;SDS011;15458;53.346;-1.688;2022-08-21T11:05:19;12.15;;;2.38;;
28170;SDS011;15458;53.346;-1.688;2022-08-21T11:10:58;9.23;;;2.95;;
28170;SDS011;15458;53.346;-1.688;2022-08-21T11:13:47;8.07;;;1.88;;
28170;SDS011;15458;53.346;-1.688;2022-08-21T11:19:20;7.65;;;1.40;;
28170;SDS011;15458;53.346;-1.688;2022-08-21T11:29:58;7.55;;;2.17;;
28170;SDS011;15458;53.346;-1.688;2022-08-21T11:37:46;13.52;;;2.00;;
28170;SDS011;15458;53.346;-1.688;2022-08-21T11:43:19;9.38;;;2.03;;
28170;SDS011;15458;53.346;-1.688;2022-08-21T11:45:54;5.63;;;1.50;;
28170;SDS011;15458;53.346;-1.688;2022-08-21T11:50:49;5.90;;;1.73;;
28170;SDS011;15458;53.346;-1.688;2022-08-21T11:55:44;8.27;;;1.77;;
28170;SDS011;15458;53.346;-1.688;2022-08-21T11:58:19;6.93;;;1.67;;
28170;SDS011;15458;53.346;-1.688;2022-08-21T12:00:54;8.68;;;1.75;;
28170;SDS011;15458;53.346;-1.688;2022-08-21T12:05:54;4.70;;;1.42;;
28170;SDS011;15458;53.346;-1.688;2022-08-21T12:13:26;3.55;;;1.52;;
28170;SDS011;15458;53.346;-1.688;2022-08-21T12:16:04;6.18;;;1.70;;
28170;SDS011;15458;53.346;-1.688;2022-08-21T12:18:35;10.30;;;2.10;;
28170;SDS011;15458;53.346;-1.688;2022-08-21T12:21:24;6.93;;;1.85;;
28170;SDS011;15458;53.346;-1.688;2022-08-21T12:26:54;7.38;;;1.60;;
28170;SDS011;15458;53.346;-1.688;2022-08-21T12:29:27;9.52;;;1.75;;
28170;SDS011;15458;53.346;-1.688;2022-08-21T12:34:40;4.03;;;1.67;;
28170;SDS011;15458;53.346;-1.688;2022-08-21T12:40:09;5.40;;;1.25;;
28170;SDS011;15458;53.346;-1.688;2022-08-21T12:43:00;9.02;;;2.00;;
28170;SDS011;15458;53.346;-1.688;2022-08-21T12:45:34;6.18;;;2.25;;
28170;SDS011;15458;53.346;-1.688;2022-08-21T12:48:18;6.97;;;1.58;;
28170;SDS011;15458;53.346;-1.688;2022-08-21T12:50:55;5.40;;;2.05;;
28170;SDS011;15458;53.346;-1.688;2022-08-21T12:56:11;8.15;;;1.88;;
28170;SDS011;15458;53.346;-1.688;2022-08-21T12:58:40;4.75;;;1.30;;
28170;SDS011;15458;53.346;-1.688;2022-08-21T13:03:51;5.93;;;1.50;;
28170;SDS011;15458;53.346;-1.688;2022-08-21T13:06:20;6.30;;;1.85;;
28170;SDS011;15458;53.346;-1.688;2022-08-21T13:08:49;7.90;;;1.58;;
28170;SDS011;15458;53.346;-1.688;2022-08-21T13:11:22;4.40;;;1.70;;
28170;SDS011;15458;53.346;-1.688;2022-08-21T13:13:50;7.43;;;1.60;;
28170;SDS011;15458;53.346;-1.688;2022-08-21T13:16:25;8.18;;;1.30;;
28170;SDS011;15458;53.346;-1.688;2022-08-21T13:19:00;3.70;;;1.20;;
28170;SDS011;15458;53.346;-1.688;2022-08-21T13:21:38;2.65;;;0.95;;
28170;SDS011;15458;53.346;-1.688;2022-08-21T13:24:28;3.70;;;1.40;;
28170;SDS011;15458;53.346;-1.688;2022-08-21T13:26:59;4.85;;;1.65;;
28170;SDS011;15458;53.346;-1.688;2022-08-21T13:29:30;3.90;;;1.20;;
28170;SDS011;15458;53.346;-1.688;2022-08-21T13:32:00;3.63;;;1.02;;
28170;SDS011;15458;53.346;-1.688;2022-08-21T13:34:33;7.05;;;1.77;;
28170;SDS011;15458;53.346;-1.688;2022-08-21T13:37:02;4.13;;;1.35;;
28170;SDS011;15458;53.346;-1.688;2022-08-21T13:39:29;4.50;;;1.35;;
28170;SDS011;15458;53.346;-1.688;2022-08-21T13:41:57;3.50;;;1.33;;
28170;SDS011;15458;53.346;-1.688;2022-08-21T13:44:34;6.75;;;1.50;;
28170;SDS011;15458;53.346;-1.688;2022-08-21T13:47:02;2.20;;;1.20;;
28170;SDS011;15458;53.346;-1.688;2022-08-21T13:49:31;4.90;;;1.85;;
28170;SDS011;15458;53.346;-1.688;2022-08-21T13:52:00;5.60;;;1.30;;
28170;SDS011;15458;53.346;-1.688;2022-08-21T13:54:35;6.78;;;1.73;;
28170;SDS011;15458;53.346;-1.688;2022-08-21T13:57:02;6.65;;;1.45;;
28170;SDS011;15458;53.346;-1.688;2022-08-21T13:59:30;4.30;;;1.45;;
28170;SDS011;15458;53.346;-1.688;2022-08-21T14:04:42;7.03;;;2.10;;
28170;SDS011;15458;53.346;-1.688;2022-08-21T14:07:27;5.00;;;1.35;;
28170;SDS011;15458;53.346;-1.688;2022-08-21T14:09:59;7.57;;;2.35;;
28170;SDS011;15458;53.346;-1.688;2022-08-21T14:12:45;6.32;;;1.52;;
28170;SDS011;15458;53.346;-1.688;2022-08-21T14:15:17;9.50;;;2.08;;
28170;SDS011;15458;53.346;-1.688;2022-08-21T14:17:50;3.75;;;1.50;;
28170;SDS011;15458;53.346;-1.688;2022-08-21T14:20:30;3.08;;;1.08;;
28170;SDS011;15458;53.346;-1.688;2022-08-21T14:22:59;4.53;;;1.23;;
28170;SDS011;15458;53.346;-1.688;2022-08-21T14:30:42;5.50;;;1.40;;
28170;SDS011;15458;53.346;-1.688;2022-08-21T14:33:09;4.22;;;1.40;;
28170;SDS011;15458;53.346;-1.688;2022-08-21T14:35:38;3.00;;;1.40;;
28170;SDS011;15458;53.346;-1.688;2022-08-21T14:38:11;3.80;;;1.48;;
28170;SDS011;15458;53.346;-1.688;2022-08-21T14:40:41;3.70;;;1.63;;
28170;SDS011;15458;53.346;-1.688;2022-08-21T14:43:09;3.72;;;1.50;;
28170;SDS011;15458;53.346;-1.688;2022-08-21T14:45:34;5.65;;;1.50;;
28170;SDS011;15458;53.346;-1.688;2022-08-21T14:48:02;8.30;;;1.80;;
28170;SDS011;15458;53.346;-1.688;2022-08-21T14:50:28;3.05;;;1.58;;
28170;SDS011;15458;53.346;-1.688;2022-08-21T14:52:54;4.90;;;1.55;;
28170;SDS011;15458;53.346;-1.688;2022-08-21T14:55:20;6.82;;;1.65;;
28170;SDS011;15458;53.346;-1.688;2022-08-21T14:57:49;6.00;;;1.65;;
28170;SDS011;15458;53.346;-1.688;2022-08-21T15:00:18;5.63;;;1.20;;
28170;SDS011;15458;53.346;-1.688;2022-08-21T15:02:48;4.18;;;1.50;;
28170;SDS011;15458;53.346;-1.688;2022-08-21T15:05:14;6.28;;;1.48;;
28170;SDS011;15458;53.346;-1.688;2022-08-21T15:07:41;3.28;;;1.40;;
28170;SDS011;15458;53.346;-1.688;2022-08-21T15:10:07;5.95;;;1.50;;
28170;SDS011;15458;53.346;-1.688;2022-08-21T15:12:33;6.28;;;1.25;;
28170;SDS011;15458;53.346;-1.688;2022-08-21T15:15:00;2.80;;;1.60;;
28170;SDS011;15458;53.346;-1.688;2022-08-21T15:17:25;5.93;;;1.55;;
28170;SDS011;15458;53.346;-1.688;2022-08-21T15:19:52;5.88;;;1.45;;
28170;SDS011;15458;53.346;-1.688;2022-08-21T15:22:17;5.13;;;1.45;;
28170;SDS011;15458;53.346;-1.688;2022-08-21T15:24:43;6.15;;;1.40;;
28170;SDS011;15458;53.346;-1.688;2022-08-21T15:27:09;4.07;;;1.40;;
28170;SDS011;15458;53.346;-1.688;2022-08-21T15:29:36;4.28;;;1.40;;
28170;SDS011;15458;53.346;-1.688;2022-08-21T15:32:14;4.32;;;1.30;;
28170;SDS011;15458;53.346;-1.688;2022-08-21T15:34:40;5.50;;;1.58;;
28170;SDS011;15458;53.346;-1.688;2022-08-21T15:37:06;6.40;;;1.20;;
28170;SDS011;15458;53.346;-1.688;2022-08-21T15:39:33;5.82;;;1.85;;
28170;SDS011;15458;53.346;-1.688;2022-08-21T15:42:00;7.68;;;2.00;;
28170;SDS011;15458;53.346;-1.688;2022-08-21T15:44:27;7.47;;;1.42;;
28170;SDS011;15458;53.346;-1.688;2022-08-21T15:46:54;5.28;;;1.30;;
28170;SDS011;15458;53.346;-1.688;2022-08-21T15:49:21;6.40;;;1.80;;
28170;SDS011;15458;53.346;-1.688;2022-08-21T15:51:47;4.50;;;1.27;;
28170;SDS011;15458;53.346;-1.688;2022-08-21T15:54:13;4.82;;;1.50;;
28170;SDS011;15458;53.346;-1.688;2022-08-21T15:56:39;6.63;;;1.30;;
28170;SDS011;15458;53.346;-1.688;2022-08-21T15:59:12;7.68;;;1.67;;
28170;SDS011;15458;53.346;-1.688;2022-08-21T16:01:41;5.30;;;1.38;;
28170;SDS011;15458;53.346;-1.688;2022-08-21T16:04:07;7.05;;;2.03;;
28170;SDS011;15458;53.346;-1.688;2022-08-21T16:06:34;4.18;;;1.30;;
28170;SDS011;15458;53.346;-1.688;2022-08-21T16:08:59;7.47;;;2.35;;
28170;SDS011;15458;53.346;-1.688;2022-08-21T16:11:26;7.10;;;1.65;;
28170;SDS011;15458;53.346;-1.688;2022-08-21T16:13:53;5.00;;;1.45;;
28170;SDS011;15458;53.346;-1.688;2022-08-21T16:16:20;4.22;;;1.10;;
28170;SDS011;15458;53.346;-1.688;2022-08-21T16:18:48;4.30;;;1.60;;
28170;SDS011;15458;53.346;-1.688;2022-08-21T16:21:15;4.03;;;1.05;;
28170;SDS011;15458;53.346;-1.688;2022-08-21T16:23:41;4.53;;;1.27;;
28170;SDS011;15458;53.346;-1.688;2022-08-21T16:26:08;6.07;;;1.85;;
28170;SDS011;15458;53.346;-1.688;2022-08-21T16:28:38;6.78;;;1.63;;
28170;SDS011;15458;53.346;-1.688;2022-08-21T16:31:07;3.47;;;1.30;;
28170;SDS011;15458;53.346;-1.688;2022-08-21T16:33:42;6.82;;;1.60;;